sensor_id;sensor_type;location;lat;lon;timestamp;P1;durP1;ratioP1;P2;durP2;ratioP2
70997;SDS011;58663;52.040;4.634;2022-08-14T00:01:48;7.05;;;5.22;;
70997;SDS011;58663;52.040;4.634;2022-08-14T00:04:13;8.38;;;5.28;;
70997;SDS011;58663;52.040;4.634;2022-08-14T00:06:39;6.13;;;4.43;;
70997;SDS011;58663;52.040;4.634;2022-08-14T00:09:04;5.72;;;4.32;;
70997;SDS011;58663;52.040;4.634;2022-08-14T00:11:30;8.40;;;4.90;;
70997;SDS011;58663;52.040;4.634;2022-08-14T00:13:55;6.53;;;4.88;;
70997;SDS011;58663;52.040;4.634;2022-08-14T00:16:21;4.88;;;4.38;;
70997;SDS011;58663;52.040;4.634;2022-08-14T00:18:47;9.52;;;4.78;;
70997;SDS011;58663;52.040;4.634;2022-08-14T00:21:13;7.20;;;4.95;;
70997;SDS011;58663;52.040;4.634;2022-08-14T00:23:38;5.32;;;4.60;;
70997;SDS011;58663;52.040;4.634;2022-08-14T00:26:04;5.60;;;5.07;;
70997;SDS011;58663;52.040;4.634;2022-08-14T00:28:30;6.07;;;5.47;;
70997;SDS011;58663;52.040;4.634;2022-08-14T00:30:55;7.07;;;5.68;;
70997;SDS011;58663;52.040;4.634;2022-08-14T00:33:23;6.68;;;5.03;;
70997;SDS011;58663;52.040;4.634;2022-08-14T00:35:49;5.68;;;5.10;;
70997;SDS011;58663;52.040;4.634;2022-08-14T00:38:15;7.85;;;5.25;;
70997;SDS011;58663;52.040;4.634;2022-08-14T00:40:41;7.15;;;5.15;;
70997;SDS011;58663;52.040;4.634;2022-08-14T00:43:07;6.05;;;5.07;;
70997;SDS011;58663;52.040;4.634;2022-08-14T00:45:34;6.57;;;5.00;;
70997;SDS011;58663;52.040;4.634;2022-08-14T00:48:00;7.63;;;5.80;;
70997;SDS011;58663;52.040;4.634;2022-08-14T00:50:26;5.82;;;5.22;;
70997;SDS011;58663;52.040;4.634;2022-08-14T00:52:55;6.60;;;4.78;;
70997;SDS011;58663;52.040;4.634;2022-08-14T00:55:21;5.25;;;4.65;;
70997;SDS011;58663;52.040;4.634;2022-08-14T00:57:47;5.50;;;4.90;;
70997;SDS011;58663;52.040;4.634;2022-08-14T01:00:33;10.52;;;5.68;;
70997;SDS011;58663;52.040;4.634;2022-08-14T01:02:59;5.63;;;4.85;;
70997;SDS011;58663;52.040;4.634;2022-08-14T01:05:24;5.95;;;5.20;;
70997;SDS011;58663;52.040;4.634;2022-08-14T01:07:50;5.88;;;5.25;;
70997;SDS011;58663;52.040;4.634;2022-08-14T01:10:18;6.47;;;5.05;;
70997;SDS011;58663;52.040;4.634;2022-08-14T01:12:44;5.80;;;5.20;;
70997;SDS011;58663;52.040;4.634;2022-08-14T01:15:12;5.85;;;5.25;;
70997;SDS011;58663;52.040;4.634;2022-08-14T01:17:38;5.65;;;4.88;;
70997;SDS011;58663;52.040;4.634;2022-08-14T01:20:22;6.22;;;4.90;;
70997;SDS011;58663;52.040;4.634;2022-08-14T01:23:11;6.90;;;5.25;;
70997;SDS011;58663;52.040;4.634;2022-08-14T01:25:37;7.05;;;4.93;;
70997;SDS011;58663;52.040;4.634;2022-08-14T01:28:03;7.78;;;5.35;;
70997;SDS011;58663;52.040;4.634;2022-08-14T01:30:28;6.68;;;5.13;;
70997;SDS011;58663;52.040;4.634;2022-08-14T01:32:56;7.53;;;5.07;;
70997;SDS011;58663;52.040;4.634;2022-08-14T01:35:22;5.70;;;5.07;;
70997;SDS011;58663;52.040;4.634;2022-08-14T01:37:48;5.90;;;5.25;;
70997;SDS011;58663;52.040;4.634;2022-08-14T01:40:13;8.80;;;5.30;;
70997;SDS011;58663;52.040;4.634;2022-08-14T01:42:42;6.47;;;5.28;;
70997;SDS011;58663;52.040;4.634;2022-08-14T01:45:08;6.10;;;5.10;;
70997;SDS011;58663;52.040;4.634;2022-08-14T01:47:37;8.25;;;5.20;;
70997;SDS011;58663;52.040;4.634;2022-08-14T01:50:04;5.63;;;5.05;;
70997;SDS011;58663;52.040;4.634;2022-08-14T01:52:34;6.03;;;5.15;;
70997;SDS011;58663;52.040;4.634;2022-08-14T01:55:05;6.90;;;5.88;;
70997;SDS011;58663;52.040;4.634;2022-08-14T01:57:36;6.50;;;4.97;;
70997;SDS011;58663;52.040;4.634;2022-08-14T02:00:04;5.88;;;5.25;;
70997;SDS011;58663;52.040;4.634;2022-08-14T02:02:33;6.38;;;5.20;;
70997;SDS011;58663;52.040;4.634;2022-08-14T02:04:59;6.40;;;4.93;;
70997;SDS011;58663;52.040;4.634;2022-08-14T02:07:25;6.43;;;5.20;;
70997;SDS011;58663;52.040;4.634;2022-08-14T02:09:50;8.10;;;6.05;;
70997;SDS011;58663;52.040;4.634;2022-08-14T02:12:15;8.90;;;5.55;;
70997;SDS011;58663;52.040;4.634;2022-08-14T02:14:41;7.13;;;5.95;;
70997;SDS011;58663;52.040;4.634;2022-08-14T02:17:08;7.50;;;6.68;;
70997;SDS011;58663;52.040;4.634;2022-08-14T02:19:34;6.88;;;6.18;;
70997;SDS011;58663;52.040;4.634;2022-08-14T02:22:00;6.80;;;6.10;;
70997;SDS011;58663;52.040;4.634;2022-08-14T02:24:27;7.85;;;5.78;;
70997;SDS011;58663;52.040;4.634;2022-08-14T02:26:54;7.50;;;5.82;;
70997;SDS011;58663;52.040;4.634;2022-08-14T02:29:22;6.63;;;5.93;;
70997;SDS011;58663;52.040;4.634;2022-08-14T02:31:53;6.47;;;5.72;;
70997;SDS011;58663;52.040;4.634;2022-08-14T02:34:24;7.32;;;5.78;;
70997;SDS011;58663;52.040;4.634;2022-08-14T02:37:06;6.93;;;5.80;;
70997;SDS011;58663;52.040;4.634;2022-08-14T02:39:35;7.30;;;5.68;;
70997;SDS011;58663;52.040;4.634;2022-08-14T02:42:03;6.80;;;6.10;;
70997;SDS011;58663;52.040;4.634;2022-08-14T02:44:30;6.72;;;5.93;;
70997;SDS011;58663;52.040;4.634;2022-08-14T02:46:55;9.63;;;6.00;;
70997;SDS011;58663;52.040;4.634;2022-08-14T02:49:21;10.45;;;5.85;;
70997;SDS011;58663;52.040;4.634;2022-08-14T02:51:50;6.70;;;5.65;;
70997;SDS011;58663;52.040;4.634;2022-08-14T02:54:16;7.90;;;5.57;;
70997;SDS011;58663;52.040;4.634;2022-08-14T02:56:41;7.00;;;5.35;;
70997;SDS011;58663;52.040;4.634;2022-08-14T02:59:07;7.55;;;6.15;;
70997;SDS011;58663;52.040;4.634;2022-08-14T03:01:33;9.60;;;5.80;;
70997;SDS011;58663;52.040;4.634;2022-08-14T03:04:00;7.90;;;5.80;;
70997;SDS011;58663;52.040;4.634;2022-08-14T03:06:26;11.43;;;6.55;;
70997;SDS011;58663;52.040;4.634;2022-08-14T03:08:52;8.10;;;6.03;;
70997;SDS011;58663;52.040;4.634;2022-08-14T03:11:18;7.47;;;5.95;;
70997;SDS011;58663;52.040;4.634;2022-08-14T03:13:47;7.13;;;6.00;;
70997;SDS011;58663;52.040;4.634;2022-08-14T03:16:16;6.80;;;5.60;;
70997;SDS011;58663;52.040;4.634;2022-08-14T03:18:46;7.32;;;6.20;;
70997;SDS011;58663;52.040;4.634;2022-08-14T03:21:13;6.43;;;5.70;;
70997;SDS011;58663;52.040;4.634;2022-08-14T03:23:46;7.05;;;5.80;;
70997;SDS011;58663;52.040;4.634;2022-08-14T03:26:14;12.55;;;6.00;;
70997;SDS011;58663;52.040;4.634;2022-08-14T03:28:58;7.40;;;6.10;;
70997;SDS011;58663;52.040;4.634;2022-08-14T03:31:26;7.15;;;6.22;;
70997;SDS011;58663;52.040;4.634;2022-08-14T03:33:52;6.32;;;5.50;;
70997;SDS011;58663;52.040;4.634;2022-08-14T03:36:18;6.93;;;6.05;;
70997;SDS011;58663;52.040;4.634;2022-08-14T03:38:45;8.25;;;5.97;;
70997;SDS011;58663;52.040;4.634;2022-08-14T03:41:23;8.18;;;6.70;;
70997;SDS011;58663;52.040;4.634;2022-08-14T03:43:51;7.68;;;6.55;;
70997;SDS011;58663;52.040;4.634;2022-08-14T03:46:22;8.73;;;6.57;;
70997;SDS011;58663;52.040;4.634;2022-08-14T03:48:48;6.88;;;5.97;;
70997;SDS011;58663;52.040;4.634;2022-08-14T03:51:14;6.95;;;6.00;;
70997;SDS011;58663;52.040;4.634;2022-08-14T03:53:41;9.85;;;6.60;;
70997;SDS011;58663;52.040;4.634;2022-08-14T03:56:08;8.05;;;5.70;;
70997;SDS011;58663;52.040;4.634;2022-08-14T03:58:38;8.50;;;6.63;;
70997;SDS011;58663;52.040;4.634;2022-08-14T04:01:16;8.32;;;6.60;;
70997;SDS011;58663;52.040;4.634;2022-08-14T04:03:47;8.63;;;6.43;;
70997;SDS011;58663;52.040;4.634;2022-08-14T04:06:13;9.82;;;6.47;;
70997;SDS011;58663;52.040;4.634;2022-08-14T04:08:40;8.50;;;6.60;;
70997;SDS011;58663;52.040;4.634;2022-08-14T04:11:07;9.75;;;6.82;;
70997;SDS011;58663;52.040;4.634;2022-08-14T04:13:35;8.77;;;6.88;;
70997;SDS011;58663;52.040;4.634;2022-08-14T04:16:02;6.38;;;5.78;;
70997;SDS011;58663;52.040;4.634;2022-08-14T04:18:31;7.80;;;6.60;;
70997;SDS011;58663;52.040;4.634;2022-08-14T04:20:57;8.35;;;6.60;;
70997;SDS011;58663;52.040;4.634;2022-08-14T04:23:23;8.93;;;6.55;;
70997;SDS011;58663;52.040;4.634;2022-08-14T04:25:50;6.85;;;6.15;;
70997;SDS011;58663;52.040;4.634;2022-08-14T04:28:18;9.90;;;6.45;;
70997;SDS011;58663;52.040;4.634;2022-08-14T04:30:45;8.85;;;7.35;;
70997;SDS011;58663;52.040;4.634;2022-08-14T04:33:10;10.50;;;6.68;;
70997;SDS011;58663;52.040;4.634;2022-08-14T04:35:36;8.82;;;6.85;;
70997;SDS011;58663;52.040;4.634;2022-08-14T04:38:05;11.05;;;6.72;;
70997;SDS011;58663;52.040;4.634;2022-08-14T04:40:50;8.20;;;6.72;;
70997;SDS011;58663;52.040;4.634;2022-08-14T04:43:34;8.77;;;6.85;;
70997;SDS011;58663;52.040;4.634;2022-08-14T04:46:00;9.18;;;7.20;;
70997;SDS011;58663;52.040;4.634;2022-08-14T04:48:26;9.15;;;7.43;;
70997;SDS011;58663;52.040;4.634;2022-08-14T04:50:52;9.07;;;7.43;;
70997;SDS011;58663;52.040;4.634;2022-08-14T04:53:20;11.40;;;7.55;;
70997;SDS011;58663;52.040;4.634;2022-08-14T04:55:48;8.70;;;7.03;;
70997;SDS011;58663;52.040;4.634;2022-08-14T04:58:15;9.82;;;6.60;;
70997;SDS011;58663;52.040;4.634;2022-08-14T05:00:50;13.05;;;7.45;;
70997;SDS011;58663;52.040;4.634;2022-08-14T05:03:21;7.95;;;6.68;;
70997;SDS011;58663;52.040;4.634;2022-08-14T05:05:51;11.90;;;8.10;;
70997;SDS011;58663;52.040;4.634;2022-08-14T05:08:18;9.77;;;6.57;;
70997;SDS011;58663;52.040;4.634;2022-08-14T05:10:47;9.80;;;7.60;;
70997;SDS011;58663;52.040;4.634;2022-08-14T05:13:18;9.20;;;7.20;;
70997;SDS011;58663;52.040;4.634;2022-08-14T05:15:45;11.02;;;7.10;;
70997;SDS011;58663;52.040;4.634;2022-08-14T05:18:15;9.05;;;7.25;;
70997;SDS011;58663;52.040;4.634;2022-08-14T05:20:42;8.88;;;7.50;;
70997;SDS011;58663;52.040;4.634;2022-08-14T05:23:13;10.35;;;7.05;;
70997;SDS011;58663;52.040;4.634;2022-08-14T05:25:41;10.18;;;7.10;;
70997;SDS011;58663;52.040;4.634;2022-08-14T05:28:07;8.90;;;6.75;;
70997;SDS011;58663;52.040;4.634;2022-08-14T05:30:38;10.48;;;7.20;;
70997;SDS011;58663;52.040;4.634;2022-08-14T05:33:23;9.70;;;6.95;;
70997;SDS011;58663;52.040;4.634;2022-08-14T05:35:49;8.32;;;7.40;;
70997;SDS011;58663;52.040;4.634;2022-08-14T05:38:16;10.65;;;7.13;;
70997;SDS011;58663;52.040;4.634;2022-08-14T05:40:44;13.10;;;7.65;;
70997;SDS011;58663;52.040;4.634;2022-08-14T05:43:10;9.20;;;7.57;;
70997;SDS011;58663;52.040;4.634;2022-08-14T05:45:36;10.95;;;8.07;;
70997;SDS011;58663;52.040;4.634;2022-08-14T05:48:03;12.27;;;8.27;;
70997;SDS011;58663;52.040;4.634;2022-08-14T05:50:29;8.45;;;7.07;;
70997;SDS011;58663;52.040;4.634;2022-08-14T05:52:55;11.93;;;7.43;;
70997;SDS011;58663;52.040;4.634;2022-08-14T05:55:21;11.57;;;7.65;;
70997;SDS011;58663;52.040;4.634;2022-08-14T05:57:51;9.80;;;7.68;;
70997;SDS011;58663;52.040;4.634;2022-08-14T06:00:29;8.20;;;7.40;;
70997;SDS011;58663;52.040;4.634;2022-08-14T06:02:57;9.30;;;7.32;;
70997;SDS011;58663;52.040;4.634;2022-08-14T06:05:23;10.95;;;7.80;;
70997;SDS011;58663;52.040;4.634;2022-08-14T06:07:48;11.63;;;8.32;;
70997;SDS011;58663;52.040;4.634;2022-08-14T06:10:14;10.13;;;7.60;;
70997;SDS011;58663;52.040;4.634;2022-08-14T06:12:42;10.88;;;7.15;;
70997;SDS011;58663;52.040;4.634;2022-08-14T06:15:08;8.20;;;7.32;;
70997;SDS011;58663;52.040;4.634;2022-08-14T06:17:50;8.88;;;6.53;;
70997;SDS011;58663;52.040;4.634;2022-08-14T06:20:16;9.07;;;6.97;;
70997;SDS011;58663;52.040;4.634;2022-08-14T06:22:43;9.55;;;6.53;;
70997;SDS011;58663;52.040;4.634;2022-08-14T06:25:10;8.55;;;6.90;;
70997;SDS011;58663;52.040;4.634;2022-08-14T06:27:37;9.30;;;6.93;;
70997;SDS011;58663;52.040;4.634;2022-08-14T06:30:05;9.52;;;7.18;;
70997;SDS011;58663;52.040;4.634;2022-08-14T06:32:31;12.02;;;6.95;;
70997;SDS011;58663;52.040;4.634;2022-08-14T06:34:57;7.95;;;7.05;;
70997;SDS011;58663;52.040;4.634;2022-08-14T06:37:22;8.23;;;7.03;;
70997;SDS011;58663;52.040;4.634;2022-08-14T06:39:47;9.00;;;7.57;;
70997;SDS011;58663;52.040;4.634;2022-08-14T06:42:13;12.48;;;7.75;;
70997;SDS011;58663;52.040;4.634;2022-08-14T06:44:39;8.95;;;7.43;;
70997;SDS011;58663;52.040;4.634;2022-08-14T06:47:05;9.52;;;7.50;;
70997;SDS011;58663;52.040;4.634;2022-08-14T06:49:30;13.32;;;7.70;;
70997;SDS011;58663;52.040;4.634;2022-08-14T06:51:56;8.95;;;6.75;;
70997;SDS011;58663;52.040;4.634;2022-08-14T06:54:21;9.15;;;6.47;;
70997;SDS011;58663;52.040;4.634;2022-08-14T06:56:47;8.43;;;6.93;;
70997;SDS011;58663;52.040;4.634;2022-08-14T06:59:13;9.27;;;7.25;;
70997;SDS011;58663;52.040;4.634;2022-08-14T07:01:39;8.27;;;7.35;;
70997;SDS011;58663;52.040;4.634;2022-08-14T07:04:23;8.43;;;6.40;;
70997;SDS011;58663;52.040;4.634;2022-08-14T07:07:07;9.02;;;6.95;;
70997;SDS011;58663;52.040;4.634;2022-08-14T07:09:33;8.32;;;6.53;;
70997;SDS011;58663;52.040;4.634;2022-08-14T07:12:07;8.73;;;6.93;;
70997;SDS011;58663;52.040;4.634;2022-08-14T07:14:33;8.32;;;6.50;;
70997;SDS011;58663;52.040;4.634;2022-08-14T07:16:59;7.63;;;6.47;;
70997;SDS011;58663;52.040;4.634;2022-08-14T07:19:24;8.57;;;6.65;;
70997;SDS011;58663;52.040;4.634;2022-08-14T07:21:49;10.23;;;6.60;;
70997;SDS011;58663;52.040;4.634;2022-08-14T07:24:15;9.02;;;6.70;;
70997;SDS011;58663;52.040;4.634;2022-08-14T07:26:41;9.68;;;6.80;;
70997;SDS011;58663;52.040;4.634;2022-08-14T07:29:06;13.20;;;7.07;;
70997;SDS011;58663;52.040;4.634;2022-08-14T07:31:47;9.23;;;6.57;;
70997;SDS011;58663;52.040;4.634;2022-08-14T07:34:13;6.80;;;6.00;;
70997;SDS011;58663;52.040;4.634;2022-08-14T07:36:38;7.30;;;6.47;;
70997;SDS011;58663;52.040;4.634;2022-08-14T07:39:03;9.25;;;6.05;;
70997;SDS011;58663;52.040;4.634;2022-08-14T07:41:29;9.50;;;6.25;;
70997;SDS011;58663;52.040;4.634;2022-08-14T07:43:55;8.60;;;6.13;;
70997;SDS011;58663;52.040;4.634;2022-08-14T07:46:20;6.55;;;5.78;;
70997;SDS011;58663;52.040;4.634;2022-08-14T07:48:46;7.82;;;6.53;;
70997;SDS011;58663;52.040;4.634;2022-08-14T07:51:12;8.55;;;6.40;;
70997;SDS011;58663;52.040;4.634;2022-08-14T07:53:38;6.82;;;5.70;;
70997;SDS011;58663;52.040;4.634;2022-08-14T07:56:04;8.20;;;6.13;;
70997;SDS011;58663;52.040;4.634;2022-08-14T07:58:30;8.10;;;6.05;;
70997;SDS011;58663;52.040;4.634;2022-08-14T08:00:56;6.82;;;5.95;;
70997;SDS011;58663;52.040;4.634;2022-08-14T08:03:21;7.75;;;5.75;;
70997;SDS011;58663;52.040;4.634;2022-08-14T08:05:47;9.55;;;6.30;;
70997;SDS011;58663;52.040;4.634;2022-08-14T08:08:13;8.38;;;5.93;;
70997;SDS011;58663;52.040;4.634;2022-08-14T08:10:40;7.72;;;5.95;;
70997;SDS011;58663;52.040;4.634;2022-08-14T08:13:14;7.10;;;6.07;;
70997;SDS011;58663;52.040;4.634;2022-08-14T08:15:45;7.15;;;6.13;;
70997;SDS011;58663;52.040;4.634;2022-08-14T08:18:15;7.60;;;6.07;;
70997;SDS011;58663;52.040;4.634;2022-08-14T08:20:42;6.53;;;5.72;;
70997;SDS011;58663;52.040;4.634;2022-08-14T08:23:10;5.97;;;5.38;;
70997;SDS011;58663;52.040;4.634;2022-08-14T08:25:37;6.93;;;5.50;;
70997;SDS011;58663;52.040;4.634;2022-08-14T08:28:08;7.63;;;6.22;;
70997;SDS011;58663;52.040;4.634;2022-08-14T08:30:40;6.57;;;5.80;;
70997;SDS011;58663;52.040;4.634;2022-08-14T08:33:17;9.13;;;6.20;;
70997;SDS011;58663;52.040;4.634;2022-08-14T08:35:44;7.07;;;6.00;;
70997;SDS011;58663;52.040;4.634;2022-08-14T08:38:10;6.95;;;6.25;;
70997;SDS011;58663;52.040;4.634;2022-08-14T08:40:40;7.63;;;5.80;;
70997;SDS011;58663;52.040;4.634;2022-08-14T08:43:07;7.63;;;5.82;;
70997;SDS011;58663;52.040;4.634;2022-08-14T08:45:41;8.55;;;5.93;;
70997;SDS011;58663;52.040;4.634;2022-08-14T08:48:06;7.97;;;5.57;;
70997;SDS011;58663;52.040;4.634;2022-08-14T08:50:33;6.70;;;5.43;;
70997;SDS011;58663;52.040;4.634;2022-08-14T08:53:03;5.93;;;5.20;;
70997;SDS011;58663;52.040;4.634;2022-08-14T08:55:32;8.07;;;5.53;;
70997;SDS011;58663;52.040;4.634;2022-08-14T08:58:06;8.65;;;5.05;;
70997;SDS011;58663;52.040;4.634;2022-08-14T09:00:33;8.30;;;5.80;;
70997;SDS011;58663;52.040;4.634;2022-08-14T09:05:27;5.90;;;5.30;;
70997;SDS011;58663;52.040;4.634;2022-08-14T09:07:53;5.38;;;4.68;;
70997;SDS011;58663;52.040;4.634;2022-08-14T09:10:19;5.85;;;4.88;;
70997;SDS011;58663;52.040;4.634;2022-08-14T09:12:45;7.03;;;5.40;;
70997;SDS011;58663;52.040;4.634;2022-08-14T09:15:11;6.95;;;5.15;;
70997;SDS011;58663;52.040;4.634;2022-08-14T09:17:36;9.88;;;5.85;;
70997;SDS011;58663;52.040;4.634;2022-08-14T09:20:02;7.38;;;5.97;;
70997;SDS011;58663;52.040;4.634;2022-08-14T09:22:29;7.00;;;6.30;;
70997;SDS011;58663;52.040;4.634;2022-08-14T09:24:54;7.93;;;5.60;;
70997;SDS011;58663;52.040;4.634;2022-08-14T09:27:20;6.30;;;5.68;;
70997;SDS011;58663;52.040;4.634;2022-08-14T09:29:46;8.05;;;5.53;;
70997;SDS011;58663;52.040;4.634;2022-08-14T09:32:11;6.10;;;5.50;;
70997;SDS011;58663;52.040;4.634;2022-08-14T09:34:49;6.70;;;5.68;;
70997;SDS011;58663;52.040;4.634;2022-08-14T09:37:36;8.35;;;6.13;;
70997;SDS011;58663;52.040;4.634;2022-08-14T09:40:37;7.57;;;6.00;;
70997;SDS011;58663;52.040;4.634;2022-08-14T09:43:27;10.50;;;5.88;;
70997;SDS011;58663;52.040;4.634;2022-08-14T09:45:55;7.70;;;5.68;;
70997;SDS011;58663;52.040;4.634;2022-08-14T09:48:23;12.27;;;5.93;;
70997;SDS011;58663;52.040;4.634;2022-08-14T09:50:51;7.45;;;5.85;;
70997;SDS011;58663;52.040;4.634;2022-08-14T09:53:31;6.88;;;5.75;;
70997;SDS011;58663;52.040;4.634;2022-08-14T09:56:11;7.13;;;5.47;;
70997;SDS011;58663;52.040;4.634;2022-08-14T09:58:41;6.60;;;5.55;;
70997;SDS011;58663;52.040;4.634;2022-08-14T10:01:11;6.68;;;4.97;;
70997;SDS011;58663;52.040;4.634;2022-08-14T10:06:54;6.57;;;5.05;;
70997;SDS011;58663;52.040;4.634;2022-08-14T10:09:20;5.80;;;5.13;;
70997;SDS011;58663;52.040;4.634;2022-08-14T10:11:52;5.90;;;5.20;;
70997;SDS011;58663;52.040;4.634;2022-08-14T10:14:23;6.95;;;5.35;;
70997;SDS011;58663;52.040;4.634;2022-08-14T10:16:53;8.35;;;5.95;;
70997;SDS011;58663;52.040;4.634;2022-08-14T10:19:22;4.97;;;4.50;;
70997;SDS011;58663;52.040;4.634;2022-08-14T10:24:36;11.77;;;5.38;;
70997;SDS011;58663;52.040;4.634;2022-08-14T10:27:24;10.00;;;4.30;;
70997;SDS011;58663;52.040;4.634;2022-08-14T10:29:50;4.90;;;4.40;;
70997;SDS011;58663;52.040;4.634;2022-08-14T10:32:18;5.70;;;4.72;;
70997;SDS011;58663;52.040;4.634;2022-08-14T10:34:47;11.20;;;4.80;;
70997;SDS011;58663;52.040;4.634;2022-08-14T10:37:14;6.53;;;4.20;;
70997;SDS011;58663;52.040;4.634;2022-08-14T10:39:41;4.88;;;4.38;;
70997;SDS011;58663;52.040;4.634;2022-08-14T10:42:08;5.63;;;4.43;;
70997;SDS011;58663;52.040;4.634;2022-08-14T10:44:45;5.00;;;4.50;;
70997;SDS011;58663;52.040;4.634;2022-08-14T10:47:13;4.88;;;4.30;;
70997;SDS011;58663;52.040;4.634;2022-08-14T10:49:43;4.73;;;4.33;;
70997;SDS011;58663;52.040;4.634;2022-08-14T10:52:30;7.13;;;4.78;;
70997;SDS011;58663;52.040;4.634;2022-08-14T10:55:05;4.85;;;4.35;;
70997;SDS011;58663;52.040;4.634;2022-08-14T11:00:20;5.28;;;4.78;;
70997;SDS011;58663;52.040;4.634;2022-08-14T11:05:24;8.23;;;4.35;;
70997;SDS011;58663;52.040;4.634;2022-08-14T11:10:20;5.00;;;3.70;;
70997;SDS011;58663;52.040;4.634;2022-08-14T11:12:48;4.38;;;3.95;;
70997;SDS011;58663;52.040;4.634;2022-08-14T11:15:16;3.55;;;3.25;;
70997;SDS011;58663;52.040;4.634;2022-08-14T11:17:43;4.20;;;3.80;;
70997;SDS011;58663;52.040;4.634;2022-08-14T11:20:15;4.10;;;3.70;;
70997;SDS011;58663;52.040;4.634;2022-08-14T11:22:51;3.88;;;3.05;;
70997;SDS011;58663;52.040;4.634;2022-08-14T11:25:21;4.82;;;3.85;;
70997;SDS011;58663;52.040;4.634;2022-08-14T11:27:49;5.47;;;3.90;;
70997;SDS011;58663;52.040;4.634;2022-08-14T11:30:18;3.97;;;3.45;;
70997;SDS011;58663;52.040;4.634;2022-08-14T11:32:47;6.15;;;3.50;;
70997;SDS011;58663;52.040;4.634;2022-08-14T11:35:14;3.83;;;3.42;;
70997;SDS011;58663;52.040;4.634;2022-08-14T11:42:50;4.82;;;3.53;;
70997;SDS011;58663;52.040;4.634;2022-08-14T11:45:19;6.75;;;5.82;;
70997;SDS011;58663;52.040;4.634;2022-08-14T11:47:46;2.60;;;2.40;;
70997;SDS011;58663;52.040;4.634;2022-08-14T11:50:22;5.13;;;2.75;;
70997;SDS011;58663;52.040;4.634;2022-08-14T11:52:50;5.60;;;2.78;;
70997;SDS011;58663;52.040;4.634;2022-08-14T11:55:21;3.70;;;2.65;;
70997;SDS011;58663;52.040;4.634;2022-08-14T11:57:59;3.30;;;3.00;;
70997;SDS011;58663;52.040;4.634;2022-08-14T12:00:29;6.50;;;3.28;;
70997;SDS011;58663;52.040;4.634;2022-08-14T12:02:57;3.15;;;2.63;;
70997;SDS011;58663;52.040;4.634;2022-08-14T12:05:34;4.65;;;2.42;;
70997;SDS011;58663;52.040;4.634;2022-08-14T12:08:02;2.72;;;2.53;;
70997;SDS011;58663;52.040;4.634;2022-08-14T12:10:31;2.70;;;2.50;;
70997;SDS011;58663;52.040;4.634;2022-08-14T12:13:14;2.60;;;2.40;;
70997;SDS011;58663;52.040;4.634;2022-08-14T12:15:43;2.80;;;2.60;;
70997;SDS011;58663;52.040;4.634;2022-08-14T12:18:13;2.63;;;2.42;;
70997;SDS011;58663;52.040;4.634;2022-08-14T12:20:39;5.00;;;2.70;;
70997;SDS011;58663;52.040;4.634;2022-08-14T12:23:18;3.20;;;2.60;;
70997;SDS011;58663;52.040;4.634;2022-08-14T12:25:48;4.68;;;2.83;;
70997;SDS011;58663;52.040;4.634;2022-08-14T12:28:14;3.33;;;2.60;;
70997;SDS011;58663;52.040;4.634;2022-08-14T12:30:41;2.95;;;2.60;;
70997;SDS011;58663;52.040;4.634;2022-08-14T12:33:24;3.35;;;2.92;;
70997;SDS011;58663;52.040;4.634;2022-08-14T12:35:57;3.55;;;2.75;;
70997;SDS011;58663;52.040;4.634;2022-08-14T12:38:31;4.65;;;2.90;;
70997;SDS011;58663;52.040;4.634;2022-08-14T12:41:02;3.30;;;3.00;;
70997;SDS011;58663;52.040;4.634;2022-08-14T12:43:32;4.90;;;3.25;;
70997;SDS011;58663;52.040;4.634;2022-08-14T12:46:19;3.55;;;2.90;;
70997;SDS011;58663;52.040;4.634;2022-08-14T12:48:47;3.70;;;2.80;;
70997;SDS011;58663;52.040;4.634;2022-08-14T12:51:16;3.65;;;3.10;;
70997;SDS011;58663;52.040;4.634;2022-08-14T12:53:47;3.22;;;2.92;;
70997;SDS011;58663;52.040;4.634;2022-08-14T12:56:18;3.80;;;2.80;;
70997;SDS011;58663;52.040;4.634;2022-08-14T12:58:48;5.72;;;3.42;;
70997;SDS011;58663;52.040;4.634;2022-08-14T13:01:31;3.10;;;2.80;;
70997;SDS011;58663;52.040;4.634;2022-08-14T13:06:35;3.60;;;2.80;;
70997;SDS011;58663;52.040;4.634;2022-08-14T13:09:05;2.90;;;2.70;;
70997;SDS011;58663;52.040;4.634;2022-08-14T13:11:41;3.55;;;2.80;;
70997;SDS011;58663;52.040;4.634;2022-08-14T13:14:09;3.03;;;2.72;;
70997;SDS011;58663;52.040;4.634;2022-08-14T13:16:39;3.83;;;2.83;;
70997;SDS011;58663;52.040;4.634;2022-08-14T13:19:12;4.82;;;3.35;;
70997;SDS011;58663;52.040;4.634;2022-08-14T13:21:40;3.50;;;3.08;;
70997;SDS011;58663;52.040;4.634;2022-08-14T13:24:07;4.22;;;3.20;;
70997;SDS011;58663;52.040;4.634;2022-08-14T13:26:46;4.10;;;3.10;;
70997;SDS011;58663;52.040;4.634;2022-08-14T13:29:16;3.50;;;3.15;;
70997;SDS011;58663;52.040;4.634;2022-08-14T13:31:48;3.53;;;3.22;;
70997;SDS011;58663;52.040;4.634;2022-08-14T13:34:15;5.18;;;3.25;;
70997;SDS011;58663;52.040;4.634;2022-08-14T13:36:44;3.58;;;3.10;;
70997;SDS011;58663;52.040;4.634;2022-08-14T13:39:10;3.15;;;2.90;;
70997;SDS011;58663;52.040;4.634;2022-08-14T13:41:42;4.43;;;3.17;;
70997;SDS011;58663;52.040;4.634;2022-08-14T13:44:09;3.47;;;3.17;;
70997;SDS011;58663;52.040;4.634;2022-08-14T13:46:35;3.00;;;2.80;;
70997;SDS011;58663;52.040;4.634;2022-08-14T13:49:01;3.67;;;3.38;;
70997;SDS011;58663;52.040;4.634;2022-08-14T13:51:27;3.72;;;3.40;;
70997;SDS011;58663;52.040;4.634;2022-08-14T13:56:21;4.93;;;3.42;;
70997;SDS011;58663;52.040;4.634;2022-08-14T13:58:50;4.35;;;3.25;;
70997;SDS011;58663;52.040;4.634;2022-08-14T14:01:16;3.92;;;3.40;;
70997;SDS011;58663;52.040;4.634;2022-08-14T14:03:42;3.92;;;3.30;;
70997;SDS011;58663;52.040;4.634;2022-08-14T14:06:12;4.15;;;3.60;;
70997;SDS011;58663;52.040;4.634;2022-08-14T14:08:40;5.28;;;3.28;;
70997;SDS011;58663;52.040;4.634;2022-08-14T14:11:10;3.88;;;3.58;;
70997;SDS011;58663;52.040;4.634;2022-08-14T14:13:37;3.50;;;3.20;;
70997;SDS011;58663;52.040;4.634;2022-08-14T14:16:07;4.10;;;3.13;;
70997;SDS011;58663;52.040;4.634;2022-08-14T14:18:33;3.92;;;3.58;;
70997;SDS011;58663;52.040;4.634;2022-08-14T14:21:02;5.63;;;3.75;;
70997;SDS011;58663;52.040;4.634;2022-08-14T14:23:29;6.38;;;3.50;;
70997;SDS011;58663;52.040;4.634;2022-08-14T14:25:55;3.95;;;3.45;;
70997;SDS011;58663;52.040;4.634;2022-08-14T14:28:21;3.90;;;3.35;;
70997;SDS011;58663;52.040;4.634;2022-08-14T14:30:52;4.00;;;3.63;;
70997;SDS011;58663;52.040;4.634;2022-08-14T14:33:19;4.47;;;3.50;;
70997;SDS011;58663;52.040;4.634;2022-08-14T14:35:44;5.28;;;3.42;;
70997;SDS011;58663;52.040;4.634;2022-08-14T14:38:14;4.68;;;3.38;;
70997;SDS011;58663;52.040;4.634;2022-08-14T14:40:42;5.00;;;3.47;;
70997;SDS011;58663;52.040;4.634;2022-08-14T14:43:10;4.63;;;3.33;;
70997;SDS011;58663;52.040;4.634;2022-08-14T14:45:37;4.35;;;3.28;;
70997;SDS011;58663;52.040;4.634;2022-08-14T14:48:05;4.20;;;3.53;;
70997;SDS011;58663;52.040;4.634;2022-08-14T14:50:32;4.07;;;3.67;;
70997;SDS011;58663;52.040;4.634;2022-08-14T14:52:58;3.70;;;3.17;;
70997;SDS011;58663;52.040;4.634;2022-08-14T14:55:23;3.97;;;3.58;;
70997;SDS011;58663;52.040;4.634;2022-08-14T14:57:51;3.85;;;3.55;;
70997;SDS011;58663;52.040;4.634;2022-08-14T15:00:18;4.30;;;3.33;;
70997;SDS011;58663;52.040;4.634;2022-08-14T15:02:51;3.72;;;3.42;;
70997;SDS011;58663;52.040;4.634;2022-08-14T15:05:18;6.10;;;3.42;;
70997;SDS011;58663;52.040;4.634;2022-08-14T15:07:46;4.45;;;3.25;;
70997;SDS011;58663;52.040;4.634;2022-08-14T15:10:14;4.65;;;3.47;;
70997;SDS011;58663;52.040;4.634;2022-08-14T15:12:41;3.63;;;3.33;;
70997;SDS011;58663;52.040;4.634;2022-08-14T15:15:08;3.63;;;3.33;;
70997;SDS011;58663;52.040;4.634;2022-08-14T15:17:34;3.63;;;3.33;;
70997;SDS011;58663;52.040;4.634;2022-08-14T15:20:04;3.90;;;3.60;;
70997;SDS011;58663;52.040;4.634;2022-08-14T15:22:33;3.70;;;3.33;;